sensor_id;sensor_type;location;lat;lon;timestamp;pressure;altitude;pressure_sealevel;temperature;humidity
55660;BME280;41534;53.550;9.964;2024-03-08T00:01:21;102157.88;;;21.71;46.32
55660;BME280;41534;53.550;9.964;2024-03-08T00:04:21;102150.16;;;21.66;46.53
55660;BME280;41534;53.550;9.964;2024-03-08T00:07:22;102151.34;;;21.63;46.40
55660;BME280;41534;53.550;9.964;2024-03-08T00:10:22;102147.25;;;21.59;46.67
55660;BME280;41534;53.550;9.964;2024-03-08T00:13:22;102146.75;;;21.56;46.83
55660;BME280;41534;53.550;9.964;2024-03-08T00:16:23;102145.22;;;21.53;46.78
55660;BME280;41534;53.550;9.964;2024-03-08T00:19:23;102142.81;;;21.50;46.68
55660;BME280;41534;53.550;9.964;2024-03-08T00:22:23;102145.88;;;21.47;46.74
55660;BME280;41534;53.550;9.964;2024-03-08T00:25:23;102138.19;;;21.43;46.91
55660;BME280;41534;53.550;9.964;2024-03-08T00:28:24;102142.97;;;21.41;46.91
55660;BME280;41534;53.550;9.964;2024-03-08T00:31:24;102140.75;;;21.36;46.93
55660;BME280;41534;53.550;9.964;2024-03-08T00:34:24;102138.31;;;21.33;47.02
55660;BME280;41534;53.550;9.964;2024-03-08T00:37:24;102132.53;;;21.28;47.07
55660;BME280;41534;53.550;9.964;2024-03-08T00:40:25;102128.25;;;21.25;46.82
55660;BME280;41534;53.550;9.964;2024-03-08T00:43:25;102138.44;;;21.23;47.19
55660;BME280;41534;53.550;9.964;2024-03-08T00:46:25;102144.25;;;21.20;47.10
55660;BME280;41534;53.550;9.964;2024-03-08T00:49:26;102142.84;;;21.16;47.24
55660;BME280;41534;53.550;9.964;2024-03-08T00:52:26;102142.16;;;21.14;47.23
55660;BME280;41534;53.550;9.964;2024-03-08T00:55:26;102143.50;;;21.10;47.19
55660;BME280;41534;53.550;9.964;2024-03-08T00:58:26;102138.38;;;21.07;47.32
55660;BME280;41534;53.550;9.964;2024-03-08T01:01:27;102128.00;;;21.02;47.25
55660;BME280;41534;53.550;9.964;2024-03-08T01:04:27;102130.34;;;20.97;47.31
55660;BME280;41534;53.550;9.964;2024-03-08T01:07:28;102125.22;;;20.94;47.31
55660;BME280;41534;53.550;9.964;2024-03-08T01:10:28;102123.00;;;20.90;47.52
55660;BME280;41534;53.550;9.964;2024-03-08T01:13:28;102114.28;;;20.86;47.36
55660;BME280;41534;53.550;9.964;2024-03-08T01:16:28;102104.59;;;20.84;47.52
55660;BME280;41534;53.550;9.964;2024-03-08T01:19:29;102102.16;;;20.81;47.36
55660;BME280;41534;53.550;9.964;2024-03-08T01:22:29;102102.31;;;20.79;47.61
55660;BME280;41534;53.550;9.964;2024-03-08T01:25:29;102098.22;;;20.75;47.40
55660;BME280;41534;53.550;9.964;2024-03-08T01:28:30;102091.25;;;20.72;47.41
55660;BME280;41534;53.550;9.964;2024-03-08T01:31:31;102086.97;;;20.70;47.49
55660;BME280;41534;53.550;9.964;2024-03-08T01:34:31;102085.44;;;20.67;47.62
55660;BME280;41534;53.550;9.964;2024-03-08T01:37:32;102083.00;;;20.64;47.65
55660;BME280;41534;53.550;9.964;2024-03-08T01:40:32;102078.75;;;20.62;47.58
55660;BME280;41534;53.550;9.964;2024-03-08T01:43:32;102070.22;;;20.57;47.11
55660;BME280;41534;53.550;9.964;2024-03-08T01:46:33;102066.13;;;20.53;46.87
55660;BME280;41534;53.550;9.964;2024-03-08T01:49:34;102066.63;;;20.48;46.54
55660;BME280;41534;53.550;9.964;2024-03-08T01:52:35;102058.91;;;20.43;46.40
55660;BME280;41534;53.550;9.964;2024-03-08T01:55:36;102057.66;;;20.38;46.28
55660;BME280;41534;53.550;9.964;2024-03-08T01:58:36;102056.13;;;20.35;45.78
55660;BME280;41534;53.550;9.964;2024-03-08T02:01:37;102052.16;;;20.30;45.71
55660;BME280;41534;53.550;9.964;2024-03-08T02:04:37;102049.75;;;20.27;45.59
55660;BME280;41534;53.550;9.964;2024-03-08T02:07:37;102051.09;;;20.23;44.65
55660;BME280;41534;53.550;9.964;2024-03-08T02:10:38;102046.16;;;20.18;44.56
55660;BME280;41534;53.550;9.964;2024-03-08T02:13:39;102051.06;;;20.14;44.45
55660;BME280;41534;53.550;9.964;2024-03-08T02:16:39;102042.34;;;20.11;44.03
55660;BME280;41534;53.550;9.964;2024-03-08T02:19:39;102042.84;;;20.06;43.80
55660;BME280;41534;53.550;9.964;2024-03-08T02:22:40;102036.03;;;20.02;43.85
55660;BME280;41534;53.550;9.964;2024-03-08T02:25:40;102030.91;;;19.99;43.44
55660;BME280;41534;53.550;9.964;2024-03-08T02:28:41;102026.75;;;19.95;43.36
55660;BME280;41534;53.550;9.964;2024-03-08T02:31:41;102034.41;;;19.92;43.11
55660;BME280;41534;53.550;9.964;2024-03-08T02:34:41;102033.88;;;19.88;42.82
55660;BME280;41534;53.550;9.964;2024-03-08T02:37:42;102037.94;;;19.84;42.84
55660;BME280;41534;53.550;9.964;2024-03-08T02:40:43;102030.94;;;19.81;42.45
55660;BME280;41534;53.550;9.964;2024-03-08T02:43:43;102023.06;;;19.78;42.02
55660;BME280;41534;53.550;9.964;2024-03-08T02:46:43;102026.44;;;19.72;42.05
55660;BME280;41534;53.550;9.964;2024-03-08T02:49:43;102026.75;;;19.69;41.64
55660;BME280;41534;53.550;9.964;2024-03-08T02:52:44;102026.22;;;19.66;41.58
55660;BME280;41534;53.550;9.964;2024-03-08T02:55:44;102019.53;;;19.60;41.49
55660;BME280;41534;53.550;9.964;2024-03-08T02:58:44;102017.13;;;19.57;41.10
55660;BME280;41534;53.550;9.964;2024-03-08T03:01:45;102012.88;;;19.54;41.12
55660;BME280;41534;53.550;9.964;2024-03-08T03:04:45;102008.72;;;19.50;41.22
55660;BME280;41534;53.550;9.964;2024-03-08T03:07:45;102009.91;;;19.48;40.80
55660;BME280;41534;53.550;9.964;2024-03-08T03:10:46;102004.78;;;19.45;40.64
55660;BME280;41534;53.550;9.964;2024-03-08T03:13:46;102003.22;;;19.42;40.64
55660;BME280;41534;53.550;9.964;2024-03-08T03:16:46;101999.09;;;19.38;40.60
55660;BME280;41534;53.550;9.964;2024-03-08T03:19:47;102003.84;;;19.36;40.42
55660;BME280;41534;53.550;9.964;2024-03-08T03:22:47;102004.16;;;19.33;40.36
55660;BME280;41534;53.550;9.964;2024-03-08T03:25:47;102007.19;;;19.30;40.35
55660;BME280;41534;53.550;9.964;2024-03-08T03:28:48;102004.63;;;19.28;40.31
55660;BME280;41534;53.550;9.964;2024-03-08T03:31:48;102007.63;;;19.25;40.25
55660;BME280;41534;53.550;9.964;2024-03-08T03:34:48;101999.81;;;19.22;40.12
55660;BME280;41534;53.550;9.964;2024-03-08T03:37:49;102002.69;;;19.21;40.18
55660;BME280;41534;53.550;9.964;2024-03-08T03:40:49;102002.13;;;19.17;39.96
55660;BME280;41534;53.550;9.964;2024-03-08T03:43:49;101992.44;;;19.15;39.91
55660;BME280;41534;53.550;9.964;2024-03-08T03:46:49;101995.47;;;19.12;39.80
55660;BME280;41534;53.550;9.964;2024-03-08T03:49:50;101991.22;;;19.09;39.84
55660;BME280;41534;53.550;9.964;2024-03-08T03:52:50;101987.91;;;19.06;39.58
55660;BME280;41534;53.550;9.964;2024-03-08T03:55:50;101983.66;;;19.03;39.76
55660;BME280;41534;53.550;9.964;2024-03-08T03:58:51;101989.25;;;19.02;39.51
55660;BME280;41534;53.550;9.964;2024-03-08T04:01:51;101990.41;;;18.99;39.79
55660;BME280;41534;53.550;9.964;2024-03-08T04:04:52;101997.00;;;18.96;39.71
55660;BME280;41534;53.550;9.964;2024-03-08T04:07:52;101989.03;;;18.95;39.60
55660;BME280;41534;53.550;9.964;2024-03-08T04:10:53;102000.19;;;18.92;39.45
55660;BME280;41534;53.550;9.964;2024-03-08T04:13:53;101998.63;;;18.89;39.55
55660;BME280;41534;53.550;9.964;2024-03-08T04:16:53;101987.06;;;18.87;39.13
55660;BME280;41534;53.550;9.964;2024-03-08T04:19:53;101990.09;;;18.84;39.47
55660;BME280;41534;53.550;9.964;2024-03-08T04:22:54;101977.66;;;18.82;39.43
55660;BME280;41534;53.550;9.964;2024-03-08T04:25:54;101984.97;;;18.81;39.52
55660;BME280;41534;53.550;9.964;2024-03-08T04:28:55;101980.84;;;18.77;39.15
55660;BME280;41534;53.550;9.964;2024-03-08T04:31:55;101982.88;;;18.75;39.30
55660;BME280;41534;53.550;9.964;2024-03-08T04:34:56;101979.44;;;18.73;39.18
55660;BME280;41534;53.550;9.964;2024-03-08T04:37:56;101968.03;;;18.70;39.01
55660;BME280;41534;53.550;9.964;2024-03-08T04:40:57;101965.63;;;18.66;39.16
55660;BME280;41534;53.550;9.964;2024-03-08T04:43:58;101967.63;;;18.64;39.07
55660;BME280;41534;53.550;9.964;2024-03-08T04:46:58;101962.34;;;18.63;39.14
55660;BME280;41534;53.550;9.964;2024-03-08T04:49:58;101968.91;;;18.60;38.93
55660;BME280;41534;53.550;9.964;2024-03-08T04:52:58;101968.22;;;18.58;39.02
55660;BME280;41534;53.550;9.964;2024-03-08T04:55:59;101962.91;;;18.57;39.14
55660;BME280;41534;53.550;9.964;2024-03-08T04:58:59;101963.22;;;18.54;38.92
55660;BME280;41534;53.550;9.964;2024-03-08T05:01:59;101957.09;;;18.52;38.84
55660;BME280;41534;53.550;9.964;2024-03-08T05:04:59;101958.41;;;18.48;38.67
55660;BME280;41534;53.550;9.964;2024-03-08T05:08:00;101951.28;;;18.47;38.99
55660;BME280;41534;53.550;9.964;2024-03-08T05:11:00;101953.28;;;18.45;38.73
55660;BME280;41534;53.550;9.964;2024-03-08T05:14:00;101948.03;;;18.43;38.88
55660;BME280;41534;53.550;9.964;2024-03-08T05:17:01;101951.03;;;18.40;38.89
55660;BME280;41534;53.550;9.964;2024-03-08T05:20:01;101952.88;;;18.39;38.84
55660;BME280;41534;53.550;9.964;2024-03-08T05:23:02;101947.75;;;18.36;38.57
55660;BME280;41534;53.550;9.964;2024-03-08T05:26:02;101941.63;;;18.34;38.76
55660;BME280;41534;53.550;9.964;2024-03-08T05:29:03;101947.19;;;18.33;38.28
55660;BME280;41534;53.550;9.964;2024-03-08T05:32:03;101952.78;;;18.31;38.38
55660;BME280;41534;53.550;9.964;2024-03-08T05:35:04;101943.25;;;18.27;38.54
55660;BME280;41534;53.550;9.964;2024-03-08T05:38:04;101945.25;;;18.25;38.68
55660;BME280;41534;53.550;9.964;2024-03-08T05:41:04;101945.41;;;18.24;38.44
55660;BME280;41534;53.550;9.964;2024-03-08T05:44:05;101930.25;;;18.21;38.41
55660;BME280;41534;53.550;9.964;2024-03-08T05:47:05;101934.97;;;18.19;38.43
55660;BME280;41534;53.550;9.964;2024-03-08T05:50:06;101927.00;;;18.18;38.29
55660;BME280;41534;53.550;9.964;2024-03-08T05:53:06;101927.16;;;18.16;38.08
55660;BME280;41534;53.550;9.964;2024-03-08T05:56:07;101933.75;;;18.14;38.30
55660;BME280;41534;53.550;9.964;2024-03-08T05:59:07;101935.75;;;18.12;38.19
55660;BME280;41534;53.550;9.964;2024-03-08T06:02:08;101939.63;;;18.09;38.41
55660;BME280;41534;53.550;9.964;2024-03-08T06:05:09;101937.91;;;18.08;38.40
55660;BME280;41534;53.550;9.964;2024-03-08T06:08:10;101936.22;;;18.07;38.37
55660;BME280;41534;53.550;9.964;2024-03-08T06:11:10;101940.03;;;18.04;38.11
55660;BME280;41534;53.550;9.964;2024-03-08T06:14:10;101940.19;;;18.03;38.17
55660;BME280;41534;53.550;9.964;2024-03-08T06:17:10;101939.50;;;18.01;38.38
55660;BME280;41534;53.550;9.964;2024-03-08T06:20:11;101940.50;;;18.00;38.49
55660;BME280;41534;53.550;9.964;2024-03-08T06:23:11;101943.38;;;17.98;38.12
55660;BME280;41534;53.550;9.964;2024-03-08T06:26:11;101937.22;;;17.96;38.00
55660;BME280;41534;53.550;9.964;2024-03-08T06:29:12;101932.81;;;17.95;38.03
55660;BME280;41534;53.550;9.964;2024-03-08T06:32:12;101941.97;;;17.94;38.23
55660;BME280;41534;53.550;9.964;2024-03-08T06:35:12;101933.97;;;17.93;38.07
55660;BME280;41534;53.550;9.964;2024-03-08T06:38:13;101938.53;;;17.92;37.97
55660;BME280;41534;53.550;9.964;2024-03-08T06:41:13;101932.28;;;17.92;38.56
55660;BME280;41534;53.550;9.964;2024-03-08T06:44:14;101935.97;;;17.91;38.40
55660;BME280;41534;53.550;9.964;2024-03-08T06:47:15;101928.00;;;17.89;37.98
55660;BME280;41534;53.550;9.964;2024-03-08T06:50:15;101936.13;;;17.89;37.88
55660;BME280;41534;53.550;9.964;2024-03-08T06:53:15;101928.16;;;17.88;37.81
55660;BME280;41534;53.550;9.964;2024-03-08T06:56:16;101923.56;;;17.88;38.34
55660;BME280;41534;53.550;9.964;2024-03-08T06:59:16;101920.88;;;17.88;38.13
55660;BME280;41534;53.550;9.964;2024-03-08T07:02:16;101919.00;;;17.89;38.06
55660;BME280;41534;53.550;9.964;2024-03-08T07:05:17;101928.84;;;17.90;37.99
55660;BME280;41534;53.550;9.964;2024-03-08T07:08:17;101919.00;;;17.89;37.75
55660;BME280;41534;53.550;9.964;2024-03-08T07:11:17;101917.31;;;17.88;37.98
55660;BME280;41534;53.550;9.964;2024-03-08T07:14:18;101923.56;;;17.88;38.13
55660;BME280;41534;53.550;9.964;2024-03-08T07:17:18;101923.44;;;17.90;37.51
55660;BME280;41534;53.550;9.964;2024-03-08T07:20:18;101921.25;;;17.93;38.04
55660;BME280;41534;53.550;9.964;2024-03-08T07:23:19;101916.25;;;17.98;38.92
55660;BME280;41534;53.550;9.964;2024-03-08T07:26:20;101917.75;;;18.11;38.98
55660;BME280;41534;53.550;9.964;2024-03-08T07:29:20;101916.69;;;18.21;39.48
55660;BME280;41534;53.550;9.964;2024-03-08T07:32:20;101922.09;;;18.31;39.81
55660;BME280;41534;53.550;9.964;2024-03-08T07:35:20;101924.44;;;18.44;39.78
55660;BME280;41534;53.550;9.964;2024-03-08T07:38:21;101920.50;;;18.56;39.87
55660;BME280;41534;53.550;9.964;2024-03-08T07:41:21;101927.84;;;18.73;40.16
55660;BME280;41534;53.550;9.964;2024-03-08T07:44:21;101919.56;;;18.92;40.21
55660;BME280;41534;53.550;9.964;2024-03-08T07:47:22;101920.94;;;19.14;40.28
55660;BME280;41534;53.550;9.964;2024-03-08T07:50:22;101917.88;;;19.35;40.50
55660;BME280;41534;53.550;9.964;2024-03-08T07:53:23;101915.00;;;19.54;40.60
55660;BME280;41534;53.550;9.964;2024-03-08T07:56:23;101918.50;;;19.73;40.55
55660;BME280;41534;53.550;9.964;2024-03-08T07:59:23;101911.47;;;19.88;40.63
55660;BME280;41534;53.550;9.964;2024-03-08T08:02:23;101915.28;;;20.03;40.59
55660;BME280;41534;53.550;9.964;2024-03-08T08:05:24;101913.66;;;20.18;40.85
55660;BME280;41534;53.550;9.964;2024-03-08T08:08:24;101913.19;;;20.31;40.52
55660;BME280;41534;53.550;9.964;2024-03-08T08:11:28;101913.41;;;20.46;40.52
55660;BME280;41534;53.550;9.964;2024-03-08T08:14:28;101906.81;;;20.57;40.64
55660;BME280;41534;53.550;9.964;2024-03-08T08:17:28;101907.66;;;20.57;40.37
55660;BME280;41534;53.550;9.964;2024-03-08T08:20:28;101907.00;;;20.63;40.24
55660;BME280;41534;53.550;9.964;2024-03-08T08:23:29;101909.75;;;20.80;40.15
55660;BME280;41534;53.550;9.964;2024-03-08T08:26:29;101912.84;;;20.93;40.39
55660;BME280;41534;53.550;9.964;2024-03-08T08:29:30;101912.66;;;20.94;40.27
55660;BME280;41534;53.550;9.964;2024-03-08T08:32:30;101906.69;;;20.99;39.94
55660;BME280;41534;53.550;9.964;2024-03-08T08:35:31;101908.09;;;21.03;39.78
55660;BME280;41534;53.550;9.964;2024-03-08T08:38:31;101905.53;;;21.10;39.91
55660;BME280;41534;53.550;9.964;2024-03-08T08:41:31;101898.69;;;21.14;39.80
55660;BME280;41534;53.550;9.964;2024-03-08T08:44:31;101903.50;;;21.20;39.74
55660;BME280;41534;53.550;9.964;2024-03-08T08:47:32;101896.53;;;21.25;39.76
55660;BME280;41534;53.550;9.964;2024-03-08T08:50:32;101893.47;;;21.36;39.83
55660;BME280;41534;53.550;9.964;2024-03-08T08:53:32;101895.81;;;21.48;39.86
55660;BME280;41534;53.550;9.964;2024-03-08T08:56:32;101891.03;;;21.58;40.07
55660;BME280;41534;53.550;9.964;2024-03-08T08:59:34;101887.41;;;21.65;40.08
55660;BME280;41534;53.550;9.964;2024-03-08T09:02:34;101889.66;;;21.70;40.23
55660;BME280;41534;53.550;9.964;2024-03-08T09:05:35;101880.09;;;21.74;40.49
55660;BME280;41534;53.550;9.964;2024-03-08T09:08:39;101871.72;;;21.76;40.46
55660;BME280;41534;53.550;9.964;2024-03-08T09:11:39;101875.97;;;21.78;40.69
55660;BME280;41534;53.550;9.964;2024-03-08T09:14:43;101869.47;;;21.79;40.81
55660;BME280;41534;53.550;9.964;2024-03-08T09:17:43;101869.31;;;21.81;40.74
55660;BME280;41534;53.550;9.964;2024-03-08T09:20:43;101862.63;;;21.83;40.66
55660;BME280;41534;53.550;9.964;2024-03-08T09:23:44;101855.13;;;21.85;40.64
55660;BME280;41534;53.550;9.964;2024-03-08T09:26:44;101855.13;;;21.85;40.87
55660;BME280;41534;53.550;9.964;2024-03-08T09:29:44;101853.59;;;21.83;40.97
55660;BME280;41534;53.550;9.964;2024-03-08T09:32:44;101844.63;;;21.66;40.55
55660;BME280;41534;53.550;9.964;2024-03-08T09:35:48;101839.38;;;21.56;39.62
55660;BME280;41534;53.550;9.964;2024-03-08T09:38:48;101842.13;;;21.48;39.60
55660;BME280;41534;53.550;9.964;2024-03-08T09:41:48;101832.75;;;21.43;39.61
55660;BME280;41534;53.550;9.964;2024-03-08T09:44:49;101831.69;;;21.52;39.69
55660;BME280;41534;53.550;9.964;2024-03-08T09:47:49;101822.16;;;21.56;39.77
55660;BME280;41534;53.550;9.964;2024-03-08T09:50:49;101815.69;;;21.57;40.22
55660;BME280;41534;53.550;9.964;2024-03-08T09:53:50;101822.00;;;21.57;40.28
55660;BME280;41534;53.550;9.964;2024-03-08T09:56:51;101814.66;;;21.58;40.43
55660;BME280;41534;53.550;9.964;2024-03-08T09:59:51;101806.84;;;21.55;40.45
55660;BME280;41534;53.550;9.964;2024-03-08T10:02:52;101802.91;;;21.57;40.44
55660;BME280;41534;53.550;9.964;2024-03-08T10:05:52;101799.31;;;21.57;40.39
55660;BME280;41534;53.550;9.964;2024-03-08T10:08:52;101801.03;;;21.58;40.61
55660;BME280;41534;53.550;9.964;2024-03-08T10:11:59;101786.88;;;21.54;40.40
55660;BME280;41534;53.550;9.964;2024-03-08T10:14:59;101779.94;;;21.44;39.94
55660;BME280;41534;53.550;9.964;2024-03-08T10:17:59;101780.97;;;21.34;40.32
55660;BME280;41534;53.550;9.964;2024-03-08T10:21:07;101778.94;;;21.28;40.22
55660;BME280;41534;53.550;9.964;2024-03-08T10:24:10;101777.25;;;21.27;40.03
55660;BME280;41534;53.550;9.964;2024-03-08T10:27:10;101775.72;;;21.25;40.35
55660;BME280;41534;53.550;9.964;2024-03-08T10:30:15;101778.59;;;21.23;40.55
55660;BME280;41534;53.550;9.964;2024-03-08T10:33:15;101778.59;;;21.23;40.61
55660;BME280;41534;53.550;9.964;2024-03-08T10:36:16;101757.63;;;21.24;40.62
55660;BME280;41534;53.550;9.964;2024-03-08T10:39:22;101758.53;;;21.24;40.70
55660;BME280;41534;53.550;9.964;2024-03-08T10:42:28;101757.81;;;21.30;40.53
55660;BME280;41534;53.550;9.964;2024-03-08T10:48:43;101739.84;;;20.64;32.04
55660;BME280;41534;53.550;9.964;2024-03-08T10:51:44;101748.38;;;20.53;31.02
55660;BME280;41534;53.550;9.964;2024-03-08T10:54:47;101735.75;;;20.60;29.72
55660;BME280;41534;53.550;9.964;2024-03-08T10:57:48;101740.19;;;20.69;29.49
55660;BME280;41534;53.550;9.964;2024-03-08T11:00:49;101729.31;;;20.69;29.13
55660;BME280;41534;53.550;9.964;2024-03-08T11:03:49;101737.44;;;20.77;28.47
55660;BME280;41534;53.550;9.964;2024-03-08T11:06:50;101724.53;;;20.71;26.68
55660;BME280;41534;53.550;9.964;2024-03-08T11:09:51;101720.31;;;19.62;26.43
55660;BME280;41534;53.550;9.964;2024-03-08T11:12:51;101724.44;;;19.90;27.26
55660;BME280;41534;53.550;9.964;2024-03-08T11:15:52;101718.50;;;19.86;26.75
55660;BME280;41534;53.550;9.964;2024-03-08T11:18:58;101704.25;;;19.50;25.12
55660;BME280;41534;53.550;9.964;2024-03-08T11:22:03;101706.97;;;19.16;25.88
55660;BME280;41534;53.550;9.964;2024-03-08T11:25:09;101702.75;;;19.22;25.39
55660;BME280;41534;53.550;9.964;2024-03-08T11:28:13;101697.56;;;19.03;25.63
55660;BME280;41534;53.550;9.964;2024-03-08T11:31:22;101696.72;;;19.02;26.23
55660;BME280;41534;53.550;9.964;2024-03-08T11:34:25;101697.03;;;18.99;26.77
55660;BME280;41534;53.550;9.964;2024-03-08T11:37:28;101675.72;;;19.12;26.40
55660;BME280;41534;53.550;9.964;2024-03-08T11:40:28;101675.63;;;19.30;27.25
55660;BME280;41534;53.550;9.964;2024-03-08T11:43:29;101673.66;;;19.48;27.15
55660;BME280;41534;53.550;9.964;2024-03-08T11:46:29;101677.56;;;19.46;26.70
55660;BME280;41534;53.550;9.964;2024-03-08T11:49:31;101669.19;;;19.31;26.68
55660;BME280;41534;53.550;9.964;2024-03-08T11:52:32;101652.50;;;19.26;26.27
55660;BME280;41534;53.550;9.964;2024-03-08T11:55:32;101661.31;;;19.20;26.65
55660;BME280;41534;53.550;9.964;2024-03-08T11:58:32;101661.75;;;19.07;27.69
55660;BME280;41534;53.550;9.964;2024-03-08T12:01:33;101654.44;;;19.00;28.52
55660;BME280;41534;53.550;9.964;2024-03-08T12:04:33;101654.59;;;18.98;26.71
55660;BME280;41534;53.550;9.964;2024-03-08T12:07:33;101653.31;;;18.76;25.79
55660;BME280;41534;53.550;9.964;2024-03-08T12:10:33;101643.41;;;18.49;26.09
55660;BME280;41534;53.550;9.964;2024-03-08T12:13:34;101636.06;;;18.42;26.24
55660;BME280;41534;53.550;9.964;2024-03-08T12:16:36;101625.56;;;18.21;26.16
55660;BME280;41534;53.550;9.964;2024-03-08T12:19:37;101634.72;;;18.02;26.44
55660;BME280;41534;53.550;9.964;2024-03-08T12:22:41;101612.50;;;17.98;26.79
55660;BME280;41534;53.550;9.964;2024-03-08T12:25:41;101614.88;;;18.19;27.78
55660;BME280;41534;53.550;9.964;2024-03-08T12:28:43;101612.34;;;18.44;28.28
55660;BME280;41534;53.550;9.964;2024-03-08T12:31:44;101594.00;;;18.63;28.95
55660;BME280;41534;53.550;9.964;2024-03-08T12:34:52;101597.84;;;18.87;29.23
55660;BME280;41534;53.550;9.964;2024-03-08T12:37:54;101601.69;;;19.10;29.31
55660;BME280;41534;53.550;9.964;2024-03-08T12:41:00;101579.50;;;19.39;29.58
55660;BME280;41534;53.550;9.964;2024-03-08T12:44:01;101575.69;;;19.66;30.05
55660;BME280;41534;53.550;9.964;2024-03-08T12:47:01;101580.28;;;19.90;30.32
55660;BME280;41534;53.550;9.964;2024-03-08T12:50:03;101569.38;;;20.14;30.62
55660;BME280;41534;53.550;9.964;2024-03-08T12:53:04;101553.34;;;20.36;30.83
55660;BME280;41534;53.550;9.964;2024-03-08T12:56:04;101559.63;;;20.53;30.99
55660;BME280;41534;53.550;9.964;2024-03-08T12:59:05;101555.16;;;20.68;31.23
55660;BME280;41534;53.550;9.964;2024-03-08T13:02:06;101555.09;;;20.84;31.52
55660;BME280;41534;53.550;9.964;2024-03-08T13:05:06;101545.31;;;20.98;31.26
55660;BME280;41534;53.550;9.964;2024-03-08T13:08:07;101541.81;;;21.12;31.40
55660;BME280;41534;53.550;9.964;2024-03-08T13:11:07;101538.56;;;21.25;31.88
55660;BME280;41534;53.550;9.964;2024-03-08T13:14:08;101522.66;;;21.36;32.20
55660;BME280;41534;53.550;9.964;2024-03-08T13:17:08;101530.38;;;21.48;32.30
55660;BME280;41534;53.550;9.964;2024-03-08T13:20:09;101523.84;;;21.57;32.68
55660;BME280;41534;53.550;9.964;2024-03-08T13:23:09;101520.75;;;21.60;32.71
55660;BME280;41534;53.550;9.964;2024-03-08T13:26:11;101505.72;;;21.64;32.69
55660;BME280;41534;53.550;9.964;2024-03-08T13:29:11;101505.34;;;21.67;32.85
55660;BME280;41534;53.550;9.964;2024-03-08T13:32:11;101498.19;;;21.66;33.02
55660;BME280;41534;53.550;9.964;2024-03-08T13:35:12;101491.03;;;21.65;33.08
55660;BME280;41534;53.550;9.964;2024-03-08T13:38:12;101483.22;;;21.62;33.38
55660;BME280;41534;53.550;9.964;2024-03-08T13:41:13;101481.06;;;21.57;33.72
55660;BME280;41534;53.550;9.964;2024-03-08T13:44:14;101467.97;;;21.53;33.70
55660;BME280;41534;53.550;9.964;2024-03-08T13:47:15;101469.34;;;21.49;34.05
55660;BME280;41534;53.550;9.964;2024-03-08T13:50:16;101463.63;;;21.44;34.27
55660;BME280;41534;53.550;9.964;2024-03-08T13:53:16;101460.59;;;21.39;34.25
55660;BME280;41534;53.550;9.964;2024-03-08T13:56:16;101444.75;;;21.34;34.45
55660;BME280;41534;53.550;9.964;2024-03-08T13:59:16;101440.72;;;21.30;34.65
55660;BME280;41534;53.550;9.964;2024-03-08T14:02:17;101443.81;;;21.27;34.72
55660;BME280;41534;53.550;9.964;2024-03-08T14:05:17;101437.84;;;21.23;34.60
55660;BME280;41534;53.550;9.964;2024-03-08T14:08:17;101430.03;;;21.20;34.64
55660;BME280;41534;53.550;9.964;2024-03-08T14:11:18;101420.34;;;21.18;34.98
55660;BME280;41534;53.550;9.964;2024-03-08T14:14:18;101415.91;;;21.17;35.10
55660;BME280;41534;53.550;9.964;2024-03-08T14:17:18;101416.94;;;21.16;35.14
55660;BME280;41534;53.550;9.964;2024-03-08T14:20:19;101404.00;;;21.18;35.20
55660;BME280;41534;53.550;9.964;2024-03-08T14:23:19;101406.16;;;21.22;35.27
55660;BME280;41534;53.550;9.964;2024-03-08T14:26:19;101409.22;;;21.27;35.32
55660;BME280;41534;53.550;9.964;2024-03-08T14:29:19;101408.66;;;21.32;35.51
55660;BME280;41534;53.550;9.964;2024-03-08T14:32:20;101395.88;;;21.32;35.36
55660;BME280;41534;53.550;9.964;2024-03-08T14:35:20;101398.25;;;21.35;35.50
55660;BME280;41534;53.550;9.964;2024-03-08T14:38:20;101403.72;;;21.35;35.48
55660;BME280;41534;53.550;9.964;2024-03-08T14:41:20;101388.19;;;21.36;35.59
55660;BME280;41534;53.550;9.964;2024-03-08T14:44:21;101384.78;;;21.34;35.75
55660;BME280;41534;53.550;9.964;2024-03-08T14:47:21;101383.09;;;21.33;35.78
55660;BME280;41534;53.550;9.964;2024-03-08T14:50:23;101380.56;;;21.31;35.75
55660;BME280;41534;53.550;9.964;2024-03-08T14:53:23;101382.63;;;21.29;35.98
55660;BME280;41534;53.550;9.964;2024-03-08T14:56:24;101379.41;;;21.26;35.89
55660;BME280;41534;53.550;9.964;2024-03-08T14:59:24;101374.31;;;21.23;36.00
55660;BME280;41534;53.550;9.964;2024-03-08T15:02:24;101371.78;;;21.21;35.99
55660;BME280;41534;53.550;9.964;2024-03-08T15:05:25;101358.50;;;21.18;36.09
55660;BME280;41534;53.550;9.964;2024-03-08T15:08:25;101359.50;;;21.17;36.23
55660;BME280;41534;53.550;9.964;2024-03-08T15:11:25;101360.72;;;21.15;36.34
55660;BME280;41534;53.550;9.964;2024-03-08T15:14:26;101354.44;;;21.14;36.63
55660;BME280;41534;53.550;9.964;2024-03-08T15:17:26;101352.38;;;21.16;37.08
55660;BME280;41534;53.550;9.964;2024-03-08T15:20:26;101358.13;;;21.21;37.49
55660;BME280;41534;53.550;9.964;2024-03-08T15:23:27;101353.34;;;21.23;37.62
55660;BME280;41534;53.550;9.964;2024-03-08T15:26:27;101343.13;;;21.25;37.44
55660;BME280;41534;53.550;9.964;2024-03-08T15:29:27;101342.75;;;21.28;37.54
55660;BME280;41534;53.550;9.964;2024-03-08T15:32:27;101334.22;;;21.31;37.48
55660;BME280;41534;53.550;9.964;2024-03-08T15:35:28;101339.13;;;21.36;37.32
55660;BME280;41534;53.550;9.964;2024-03-08T15:38:28;101336.03;;;21.39;37.55
55660;BME280;41534;53.550;9.964;2024-03-08T15:41:28;101336.50;;;21.43;37.61
55660;BME280;41534;53.550;9.964;2024-03-08T15:44:28;101337.53;;;21.42;37.51
55660;BME280;41534;53.550;9.964;2024-03-08T15:47:29;101332.06;;;21.42;37.47